»·PEaware :: SWA691 KSFO-KSAN

SWA691 :: KSFO-KSAN

FLIGHT INFORMATION

Flight Status: Arrived
Operator:
Southwest Airlines
More flights by this operator :: More flights under this callsign
Pilot: Thomas N. (7419)
Aircraft: BOEING 737-300
(B733)
More flights by this aircraft type
Origin: KSFO San Francisco Intl
United States
Destination: KSAN San Diego Intl-Lindbergh
United States
More flights between these airports :: More routes between these airports
Route: +OFFSH9 MCKEY LAX BAYVU4
File this flight plan on PilotEdge
Remarks:
Altitude:
(Current/Filed)
39,000ft
Speed:
(Current/Filed)
430kts
Departed: 26-Apr-16 10:41 AM
Arrived: 26-Apr-16 11:54 AM
Distance/Time
Traveled:
388nm/1:13
Distance/Time
To Go:
Arrived

Flight Plot

Page will automatically refresh every two minutes.


Map Options




Map Legend


Flown Route
Filed Route
Departure Airport
Arrival Airport
Navaid (VOR, NDB)
Fix

Horizontal Profiles

Position Reports

Time Latitude Longitude Heading Altitude Ground
Speed
26-Apr-16 09:55 37.613803 -122.385653 80 20ft 0kts
26-Apr-16 10:01 37.613790 -122.385635 80 20ft 0kts
26-Apr-16 10:02 37.613790 -122.385635 80 20ft 0kts
26-Apr-16 10:03 37.613790 -122.385635 80 20ft 0kts
26-Apr-16 10:04 37.613790 -122.385635 80 20ft 0kts
26-Apr-16 10:05 37.613790 -122.385635 80 20ft 0kts
26-Apr-16 10:06 37.613790 -122.385635 80 20ft 0kts
26-Apr-16 10:07 37.613790 -122.385635 80 20ft 0kts
26-Apr-16 10:08 37.613790 -122.385635 80 20ft 0kts
26-Apr-16 10:09 37.613790 -122.385635 80 20ft 0kts
26-Apr-16 10:10 37.613790 -122.385635 80 20ft 0kts
26-Apr-16 10:11 37.613790 -122.385635 80 20ft 0kts
26-Apr-16 10:12 37.613790 -122.385635 80 20ft 0kts
26-Apr-16 10:13 37.613790 -122.385635 80 20ft 0kts
26-Apr-16 10:14 37.613790 -122.385635 80 20ft 0kts
26-Apr-16 10:15 37.613739 -122.386152 96 20ft 0kts
26-Apr-16 10:16 37.613865 -122.386377 155 20ft 0kts
26-Apr-16 10:17 37.613865 -122.386377 155 20ft 0kts
26-Apr-16 10:18 37.613865 -122.386377 155 20ft 0kts
26-Apr-16 10:19 37.613865 -122.386377 155 20ft 0kts
26-Apr-16 10:20 37.613865 -122.386377 155 20ft 0kts
26-Apr-16 10:21 37.613865 -122.386377 155 20ft 0kts
26-Apr-16 10:22 37.613865 -122.386377 155 20ft 0kts
26-Apr-16 10:23 37.613712 -122.386353 192 20ft 3kts
26-Apr-16 10:24 37.611327 -122.387839 172 20ft 14kts
26-Apr-16 10:25 37.609854 -122.384635 119 20ft 2kts
26-Apr-16 10:26 37.609186 -122.384239 190 20ft 0kts
26-Apr-16 10:27 37.609014 -122.384306 197 20ft 4kts
26-Apr-16 10:28 37.608530 -122.383981 119 20ft 0kts
26-Apr-16 10:29 37.608530 -122.383981 119 20ft 0kts
26-Apr-16 10:30 37.608530 -122.383981 119 20ft 0kts
26-Apr-16 10:31 37.608181 -122.382789 35 20ft 7kts
26-Apr-16 10:32 37.631934 -122.366972 28 619ft 202kts
26-Apr-16 10:33 37.684941 -122.391975 289 3243ft 258kts
26-Apr-16 10:34 37.648641 -122.461901 214 6833ft 275kts
26-Apr-16 10:35 37.585238 -122.518881 215 9874ft 287kts
26-Apr-16 10:36 37.519923 -122.578290 215 11877ft 295kts
26-Apr-16 10:37 37.452411 -122.639690 215 13888ft 304kts
26-Apr-16 10:38 37.378123 -122.686979 178 15874ft 314kts
26-Apr-16 10:39 37.291468 -122.665388 167 17892ft 324kts
26-Apr-16 10:40 37.202628 -122.640419 167 19899ft 334kts
26-Apr-16 10:41 37.110056 -122.614332 167 21240ft 359kts
26-Apr-16 10:42 37.007066 -122.585369 167 22771ft 398kts
26-Apr-16 10:43 36.946191 -122.568153 168 23696ft 416kts
26-Apr-16 10:44 36.845527 -122.540294 169 25209ft 437kts
26-Apr-16 10:45 36.724065 -122.508724 170 26932ft 457kts
26-Apr-16 10:46 36.597540 -122.476002 170 28652ft 472kts
26-Apr-16 10:47 36.468636 -122.442773 171 30352ft 479kts
26-Apr-16 10:48 36.363221 -122.354153 122 32023ft 486kts
26-Apr-16 10:49 36.280265 -122.223260 131 33704ft 482kts
26-Apr-16 10:50 36.193775 -122.097672 132 35005ft 480kts
26-Apr-16 10:51 36.107711 -121.972987 132 34988ft 466kts
26-Apr-16 10:52 36.024542 -121.852480 132 35001ft 466kts
26-Apr-16 10:53 35.940412 -121.731099 133 34999ft 466kts
26-Apr-16 10:54 35.855735 -121.609789 132 35000ft 466kts
26-Apr-16 10:55 35.771087 -121.488948 133 35000ft 466kts
26-Apr-16 10:56 35.686807 -121.369058 133 35000ft 466kts
26-Apr-16 10:57 35.601994 -121.248833 133 35000ft 466kts
26-Apr-16 10:58 35.531814 -121.149682 132 35000ft 475kts
26-Apr-16 10:59 35.446241 -121.022812 126 34997ft 489kts
26-Apr-16 11:00 35.369009 -120.887365 125 34997ft 488kts
26-Apr-16 11:01 35.292631 -120.751668 125 35000ft 488kts
26-Apr-16 11:02 35.215748 -120.616679 125 35000ft 488kts
26-Apr-16 11:03 35.138153 -120.480939 125 35000ft 488kts
26-Apr-16 11:04 35.060205 -120.345108 125 35000ft 488kts
26-Apr-16 11:05 34.982551 -120.210306 125 35000ft 488kts
26-Apr-16 11:06 34.904724 -120.075719 125 35000ft 488kts
26-Apr-16 11:07 34.826345 -119.940694 125 35000ft 488kts
26-Apr-16 11:08 34.749869 -119.808510 126 35000ft 487kts
26-Apr-16 11:09 34.671673 -119.674733 126 35000ft 488kts
26-Apr-16 11:10 34.593794 -119.542071 126 35000ft 488kts
26-Apr-16 11:11 34.515688 -119.409514 126 35000ft 488kts
26-Apr-16 11:12 34.437732 -119.277699 126 34996ft 488kts
26-Apr-16 11:13 34.360032 -119.146794 126 35000ft 488kts
26-Apr-16 11:14 34.281690 -119.015293 126 35000ft 488kts
26-Apr-16 11:15 34.212909 -118.900232 126 35000ft 488kts
26-Apr-16 11:16 34.137967 -118.774315 126 33313ft 475kts
26-Apr-16 11:17 34.063943 -118.651341 125 31644ft 459kts
26-Apr-16 11:18 33.992834 -118.533591 125 29998ft 443kts
26-Apr-16 11:19 33.932499 -118.434047 126 28602ft 453kts
26-Apr-16 11:20 33.856357 -118.333876 132 27080ft 450kts
26-Apr-16 11:21 33.774914 -118.229660 131 25470ft 448kts
26-Apr-16 11:22 33.692773 -118.124748 131 23804ft 434kts
26-Apr-16 11:23 33.612722 -118.022799 131 22407ft 422kts
26-Apr-16 11:24 33.534144 -117.923017 131 21017ft 410kts
26-Apr-16 11:25 33.462699 -117.831880 131 19714ft 399kts
26-Apr-16 11:26 33.389574 -117.741542 132 18364ft 388kts
26-Apr-16 11:27 33.316821 -117.650286 131 16976ft 377kts
26-Apr-16 11:28 33.245035 -117.563829 141 15593ft 368kts
26-Apr-16 11:29 33.164791 -117.493806 142 14457ft 360kts
26-Apr-16 11:30 33.089298 -117.430943 144 12579ft 323kts
26-Apr-16 11:31 33.019616 -117.375063 145 10731ft 303kts
26-Apr-16 11:32 32.950960 -117.320252 145 8869ft 302kts
26-Apr-16 11:33 32.882674 -117.266298 147 7224ft 291kts
26-Apr-16 11:34 32.824252 -117.223111 135 6754ft 247kts
26-Apr-16 11:35 32.798090 -117.159373 95 6765ft 248kts
26-Apr-16 11:36 32.789325 -117.087921 101 5336ft 257kts
26-Apr-16 11:37 32.777467 -117.017188 101 5019ft 215kts
26-Apr-16 11:38 32.754734 -116.961069 142 4506ft 198kts
26-Apr-16 11:39 32.705539 -116.950898 200 3951ft 188kts
26-Apr-16 11:40 32.679850 -116.988881 254 4012ft 192kts
26-Apr-16 11:41 32.697153 -117.043556 291 3782ft 213kts
26-Apr-16 11:42 32.710820 -117.096997 288 2768ft 203kts
26-Apr-16 11:43 32.722123 -117.142611 287 1081ft 184kts
26-Apr-16 11:44 32.732658 -117.186007 285 29ft 144kts
26-Apr-16 11:45 32.736138 -117.200361 274 24ft 12kts
26-Apr-16 11:46 32.735771 -117.202058 208 24ft 2kts
26-Apr-16 11:47 32.734817 -117.199064 105 24ft 20kts

Navigation Log

Ident Type
Flight plan parsing failed, navigation log unavailable